sensor_id;sensor_type;location;lat;lon;timestamp;pressure;altitude;pressure_sealevel;temperature;humidity
62928;BME280;51070;52.236;-0.892;2023-01-29T00:02:23;102170.73;;;5.90;95.15
62928;BME280;51070;52.236;-0.892;2023-01-29T00:04:49;102169.19;;;5.90;95.56
62928;BME280;51070;52.236;-0.892;2023-01-29T00:07:14;102166.81;;;5.90;95.41
62928;BME280;51070;52.236;-0.892;2023-01-29T00:09:39;102164.91;;;5.92;95.31
62928;BME280;51070;52.236;-0.892;2023-01-29T00:12:05;102160.23;;;5.94;95.46
62928;BME280;51070;52.236;-0.892;2023-01-29T00:14:33;102153.69;;;5.96;95.26
62928;BME280;51070;52.236;-0.892;2023-01-29T00:16:59;102150.84;;;5.97;95.21
62928;BME280;51070;52.236;-0.892;2023-01-29T00:19:24;102144.73;;;5.96;94.74
62928;BME280;51070;52.236;-0.892;2023-01-29T00:21:50;102142.18;;;5.94;94.84
62928;BME280;51070;52.236;-0.892;2023-01-29T00:24:15;102136.13;;;5.93;94.91
62928;BME280;51070;52.236;-0.892;2023-01-29T00:26:40;102133.18;;;5.90;94.69
62928;BME280;51070;52.236;-0.892;2023-01-29T00:29:07;102136.56;;;5.87;94.79
62928;BME280;51070;52.236;-0.892;2023-01-29T00:31:32;102130.11;;;5.84;94.58
62928;BME280;51070;52.236;-0.892;2023-01-29T00:33:58;102123.85;;;5.80;94.49
62928;BME280;51070;52.236;-0.892;2023-01-29T00:36:24;102128.15;;;5.79;94.72
62928;BME280;51070;52.236;-0.892;2023-01-29T00:39:08;102132.73;;;5.78;94.90
62928;BME280;51070;52.236;-0.892;2023-01-29T00:41:37;102133.89;;;5.79;95.07
62928;BME280;51070;52.236;-0.892;2023-01-29T00:44:21;102136.66;;;5.82;95.22
62928;BME280;51070;52.236;-0.892;2023-01-29T00:47:06;102133.80;;;5.83;95.18
62928;BME280;51070;52.236;-0.892;2023-01-29T00:49:50;102135.36;;;5.83;95.11
62928;BME280;51070;52.236;-0.892;2023-01-29T00:52:15;102135.47;;;5.82;95.01
62928;BME280;51070;52.236;-0.892;2023-01-29T00:54:54;102134.55;;;5.79;94.65
62928;BME280;51070;52.236;-0.892;2023-01-29T00:57:21;102133.50;;;5.76;94.71
62928;BME280;51070;52.236;-0.892;2023-01-29T00:59:47;102136.54;;;5.74;94.60
62928;BME280;51070;52.236;-0.892;2023-01-29T01:02:12;102135.40;;;5.72;94.75
62928;BME280;51070;52.236;-0.892;2023-01-29T01:04:56;102138.48;;;5.72;94.93
62928;BME280;51070;52.236;-0.892;2023-01-29T01:07:22;102142.55;;;5.73;94.96
62928;BME280;51070;52.236;-0.892;2023-01-29T01:09:47;102148.56;;;5.74;94.65
62928;BME280;51070;52.236;-0.892;2023-01-29T01:12:31;102146.71;;;5.74;94.64
62928;BME280;51070;52.236;-0.892;2023-01-29T01:14:57;102142.90;;;5.74;94.73
62928;BME280;51070;52.236;-0.892;2023-01-29T01:17:23;102137.95;;;5.74;94.74
62928;BME280;51070;52.236;-0.892;2023-01-29T01:19:48;102134.70;;;5.74;94.60
62928;BME280;51070;52.236;-0.892;2023-01-29T01:22:14;102132.20;;;5.73;94.22
62928;BME280;51070;52.236;-0.892;2023-01-29T01:24:40;102128.86;;;5.72;94.17
62928;BME280;51070;52.236;-0.892;2023-01-29T01:27:05;102131.99;;;5.73;94.20
62928;BME280;51070;52.236;-0.892;2023-01-29T01:29:31;102126.91;;;5.71;93.69
62928;BME280;51070;52.236;-0.892;2023-01-29T01:31:56;102131.64;;;5.70;93.88
62928;BME280;51070;52.236;-0.892;2023-01-29T01:34:21;102129.02;;;5.70;93.61
62928;BME280;51070;52.236;-0.892;2023-01-29T01:36:47;102125.71;;;5.69;93.71
62928;BME280;51070;52.236;-0.892;2023-01-29T01:39:13;102123.52;;;5.69;93.70
62928;BME280;51070;52.236;-0.892;2023-01-29T01:41:38;102121.60;;;5.69;93.57
62928;BME280;51070;52.236;-0.892;2023-01-29T01:44:04;102118.57;;;5.67;93.35
62928;BME280;51070;52.236;-0.892;2023-01-29T01:46:35;102117.08;;;5.65;93.58
62928;BME280;51070;52.236;-0.892;2023-01-29T01:49:21;102117.25;;;5.66;93.40
62928;BME280;51070;52.236;-0.892;2023-01-29T01:51:49;102114.86;;;5.65;93.16
62928;BME280;51070;52.236;-0.892;2023-01-29T01:54:22;102117.20;;;5.65;92.92
62928;BME280;51070;52.236;-0.892;2023-01-29T01:56:52;102112.39;;;5.65;92.80
62928;BME280;51070;52.236;-0.892;2023-01-29T01:59:21;102116.26;;;5.64;92.70
62928;BME280;51070;52.236;-0.892;2023-01-29T02:01:50;102113.01;;;5.64;92.79
62928;BME280;51070;52.236;-0.892;2023-01-29T02:04:23;102112.76;;;5.63;92.69
62928;BME280;51070;52.236;-0.892;2023-01-29T02:07:11;102112.44;;;5.61;92.39
62928;BME280;51070;52.236;-0.892;2023-01-29T02:10:11;102115.53;;;5.59;92.35
62928;BME280;51070;52.236;-0.892;2023-01-29T02:12:38;102118.77;;;5.56;92.47
62928;BME280;51070;52.236;-0.892;2023-01-29T02:15:05;102120.73;;;5.55;92.23
62928;BME280;51070;52.236;-0.892;2023-01-29T02:17:31;102119.48;;;5.52;92.04
62928;BME280;51070;52.236;-0.892;2023-01-29T02:25:46;102108.98;;;5.44;92.13
62928;BME280;51070;52.236;-0.892;2023-01-29T02:31:14;102089.17;;;5.43;91.83
62928;BME280;51070;52.236;-0.892;2023-01-29T02:33:58;102082.70;;;5.39;91.94
62928;BME280;51070;52.236;-0.892;2023-01-29T02:36:44;102072.60;;;5.35;91.75
62928;BME280;51070;52.236;-0.892;2023-01-29T02:42:03;102066.15;;;5.26;91.89
62928;BME280;51070;52.236;-0.892;2023-01-29T02:44:37;102060.87;;;5.22;91.85
62928;BME280;51070;52.236;-0.892;2023-01-29T02:47:13;102060.90;;;5.18;91.95
62928;BME280;51070;52.236;-0.892;2023-01-29T02:50:05;102063.66;;;5.14;91.94
62928;BME280;51070;52.236;-0.892;2023-01-29T02:55:23;102067.16;;;5.08;92.17
62928;BME280;51070;52.236;-0.892;2023-01-29T02:57:53;102067.10;;;5.09;92.36
62928;BME280;51070;52.236;-0.892;2023-01-29T03:00:24;102066.51;;;5.13;92.57
62928;BME280;51070;52.236;-0.892;2023-01-29T03:03:33;102062.13;;;5.19;92.58
62928;BME280;51070;52.236;-0.892;2023-01-29T03:06:08;102050.72;;;5.22;92.11
62928;BME280;51070;52.236;-0.892;2023-01-29T03:08:43;102048.96;;;5.23;92.07
62928;BME280;51070;52.236;-0.892;2023-01-29T03:11:15;102051.24;;;5.24;91.90
62928;BME280;51070;52.236;-0.892;2023-01-29T03:13:58;102046.61;;;5.24;91.85
62928;BME280;51070;52.236;-0.892;2023-01-29T03:16:39;102040.44;;;5.22;91.74
62928;BME280;51070;52.236;-0.892;2023-01-29T03:19:37;102035.47;;;5.19;91.70
62928;BME280;51070;52.236;-0.892;2023-01-29T03:22:03;102034.02;;;5.19;91.79
62928;BME280;51070;52.236;-0.892;2023-01-29T03:24:33;102028.27;;;5.17;91.73
62928;BME280;51070;52.236;-0.892;2023-01-29T03:27:22;102022.61;;;5.15;91.70
62928;BME280;51070;52.236;-0.892;2023-01-29T03:30:09;102024.45;;;5.12;91.70
62928;BME280;51070;52.236;-0.892;2023-01-29T03:32:55;102021.34;;;5.12;91.95
62928;BME280;51070;52.236;-0.892;2023-01-29T03:35:25;102026.24;;;5.13;92.22
62928;BME280;51070;52.236;-0.892;2023-01-29T03:38:02;102025.74;;;5.14;91.82
62928;BME280;51070;52.236;-0.892;2023-01-29T03:40:44;102015.59;;;5.13;91.70
62928;BME280;51070;52.236;-0.892;2023-01-29T03:43:29;102012.70;;;5.11;91.89
62928;BME280;51070;52.236;-0.892;2023-01-29T03:46:09;102014.38;;;5.08;91.68
62928;BME280;51070;52.236;-0.892;2023-01-29T03:51:35;102015.00;;;5.04;91.84
62928;BME280;51070;52.236;-0.892;2023-01-29T03:54:11;102014.38;;;5.05;91.86
62928;BME280;51070;52.236;-0.892;2023-01-29T03:57:02;102019.09;;;5.06;91.77
62928;BME280;51070;52.236;-0.892;2023-01-29T03:59:37;102015.18;;;5.07;91.81
62928;BME280;51070;52.236;-0.892;2023-01-29T04:02:27;101996.42;;;5.06;91.39
62928;BME280;51070;52.236;-0.892;2023-01-29T04:05:03;101989.56;;;4.99;91.25
62928;BME280;51070;52.236;-0.892;2023-01-29T04:07:29;101979.05;;;4.91;91.67
62928;BME280;51070;52.236;-0.892;2023-01-29T04:10:02;101975.70;;;4.83;91.77
62928;BME280;51070;52.236;-0.892;2023-01-29T04:13:07;101972.81;;;4.77;91.80
62928;BME280;51070;52.236;-0.892;2023-01-29T04:15:37;101977.20;;;4.72;92.03
62928;BME280;51070;52.236;-0.892;2023-01-29T04:18:05;101986.65;;;4.70;92.29
62928;BME280;51070;52.236;-0.892;2023-01-29T04:20:30;101995.89;;;4.70;92.35
62928;BME280;51070;52.236;-0.892;2023-01-29T04:22:55;102000.44;;;4.71;92.64
62928;BME280;51070;52.236;-0.892;2023-01-29T04:25:29;101999.27;;;4.73;92.41
62928;BME280;51070;52.236;-0.892;2023-01-29T04:28:04;101993.63;;;4.74;92.03
62928;BME280;51070;52.236;-0.892;2023-01-29T04:30:57;101994.94;;;4.73;92.18
62928;BME280;51070;52.236;-0.892;2023-01-29T04:39:25;101981.10;;;4.84;92.20
62928;BME280;51070;52.236;-0.892;2023-01-29T04:47:17;101968.31;;;4.90;91.66
62928;BME280;51070;52.236;-0.892;2023-01-29T04:52:41;101959.69;;;4.87;91.33
62928;BME280;51070;52.236;-0.892;2023-01-29T04:55:35;101952.27;;;4.82;91.49
62928;BME280;51070;52.236;-0.892;2023-01-29T04:58:13;101945.28;;;4.80;91.48
62928;BME280;51070;52.236;-0.892;2023-01-29T05:00:43;101947.13;;;4.79;91.66
62928;BME280;51070;52.236;-0.892;2023-01-29T05:03:13;101947.56;;;4.81;91.67
62928;BME280;51070;52.236;-0.892;2023-01-29T05:05:41;101952.23;;;4.83;91.75
62928;BME280;51070;52.236;-0.892;2023-01-29T05:08:11;101944.88;;;4.83;91.58
62928;BME280;51070;52.236;-0.892;2023-01-29T05:10:38;101946.02;;;4.83;91.47
62928;BME280;51070;52.236;-0.892;2023-01-29T05:13:07;101945.20;;;4.81;91.58
62928;BME280;51070;52.236;-0.892;2023-01-29T05:15:38;101937.20;;;4.79;91.48
62928;BME280;51070;52.236;-0.892;2023-01-29T05:18:05;101931.50;;;4.77;91.51
62928;BME280;51070;52.236;-0.892;2023-01-29T05:20:35;101928.52;;;4.76;91.70
62928;BME280;51070;52.236;-0.892;2023-01-29T05:23:02;101917.78;;;4.76;91.70
62928;BME280;51070;52.236;-0.892;2023-01-29T05:25:31;101908.31;;;4.76;91.71
62928;BME280;51070;52.236;-0.892;2023-01-29T05:27:57;101908.71;;;4.76;91.77
62928;BME280;51070;52.236;-0.892;2023-01-29T05:30:37;101901.79;;;4.78;92.02
62928;BME280;51070;52.236;-0.892;2023-01-29T05:33:10;101899.23;;;4.78;91.88
62928;BME280;51070;52.236;-0.892;2023-01-29T05:35:36;101895.23;;;4.75;92.13
62928;BME280;51070;52.236;-0.892;2023-01-29T05:38:01;101887.80;;;4.73;92.43
62928;BME280;51070;52.236;-0.892;2023-01-29T05:40:27;101880.65;;;4.74;92.68
62928;BME280;51070;52.236;-0.892;2023-01-29T05:42:52;101870.73;;;4.74;92.57
62928;BME280;51070;52.236;-0.892;2023-01-29T05:45:18;101863.38;;;4.75;92.59
62928;BME280;51070;52.236;-0.892;2023-01-29T05:47:44;101865.80;;;4.75;92.92
62928;BME280;51070;52.236;-0.892;2023-01-29T05:50:10;101869.63;;;4.78;93.39
62928;BME280;51070;52.236;-0.892;2023-01-29T05:52:36;101865.66;;;4.80;93.34
62928;BME280;51070;52.236;-0.892;2023-01-29T05:55:01;101868.97;;;4.81;93.78
62928;BME280;51070;52.236;-0.892;2023-01-29T05:57:27;101866.48;;;4.84;94.13
62928;BME280;51070;52.236;-0.892;2023-01-29T05:59:52;101861.88;;;4.84;93.69
62928;BME280;51070;52.236;-0.892;2023-01-29T06:02:18;101860.38;;;4.83;94.09
62928;BME280;51070;52.236;-0.892;2023-01-29T06:04:43;101862.39;;;4.82;94.43
62928;BME280;51070;52.236;-0.892;2023-01-29T06:07:08;101863.64;;;4.85;94.66
62928;BME280;51070;52.236;-0.892;2023-01-29T06:09:34;101865.47;;;4.87;94.83
62928;BME280;51070;52.236;-0.892;2023-01-29T06:11:59;101866.45;;;4.89;94.79
62928;BME280;51070;52.236;-0.892;2023-01-29T06:14:24;101864.89;;;4.90;95.22
62928;BME280;51070;52.236;-0.892;2023-01-29T06:16:50;101864.97;;;4.92;95.12
62928;BME280;51070;52.236;-0.892;2023-01-29T06:19:15;101862.71;;;4.91;95.05
62928;BME280;51070;52.236;-0.892;2023-01-29T06:21:42;101857.19;;;4.90;95.00
62928;BME280;51070;52.236;-0.892;2023-01-29T06:24:08;101857.95;;;4.89;95.07
62928;BME280;51070;52.236;-0.892;2023-01-29T06:26:33;101858.91;;;4.88;95.20
62928;BME280;51070;52.236;-0.892;2023-01-29T06:28:59;101858.86;;;4.88;95.05
62928;BME280;51070;52.236;-0.892;2023-01-29T06:31:24;101859.29;;;4.89;95.57
62928;BME280;51070;52.236;-0.892;2023-01-29T06:33:50;101855.73;;;4.92;95.31
62928;BME280;51070;52.236;-0.892;2023-01-29T06:36:15;101854.72;;;4.92;95.20
62928;BME280;51070;52.236;-0.892;2023-01-29T06:38:41;101855.28;;;4.93;95.21
62928;BME280;51070;52.236;-0.892;2023-01-29T06:41:11;101853.89;;;4.92;95.28
62928;BME280;51070;52.236;-0.892;2023-01-29T06:43:37;101847.29;;;4.93;95.10
62928;BME280;51070;52.236;-0.892;2023-01-29T06:46:05;101845.55;;;4.91;94.82
62928;BME280;51070;52.236;-0.892;2023-01-29T06:48:32;101839.96;;;4.89;94.79
62928;BME280;51070;52.236;-0.892;2023-01-29T06:51:03;101844.61;;;4.87;95.03
62928;BME280;51070;52.236;-0.892;2023-01-29T06:53:29;101848.61;;;4.86;95.02
62928;BME280;51070;52.236;-0.892;2023-01-29T06:55:55;101839.29;;;4.84;94.97
62928;BME280;51070;52.236;-0.892;2023-01-29T06:58:20;101838.80;;;4.85;94.99
62928;BME280;51070;52.236;-0.892;2023-01-29T07:00:46;101832.48;;;4.83;94.94
62928;BME280;51070;52.236;-0.892;2023-01-29T07:03:12;101829.92;;;4.78;94.88
62928;BME280;51070;52.236;-0.892;2023-01-29T07:05:38;101839.55;;;4.77;95.33
62928;BME280;51070;52.236;-0.892;2023-01-29T07:08:03;101825.85;;;4.77;95.19
62928;BME280;51070;52.236;-0.892;2023-01-29T07:10:29;101827.84;;;4.71;95.08
62928;BME280;51070;52.236;-0.892;2023-01-29T07:12:54;101823.08;;;4.64;95.27
62928;BME280;51070;52.236;-0.892;2023-01-29T07:15:20;101823.45;;;4.57;95.47
62928;BME280;51070;52.236;-0.892;2023-01-29T07:17:59;101828.35;;;4.52;95.71
62928;BME280;51070;52.236;-0.892;2023-01-29T07:20:26;101824.83;;;4.49;95.84
62928;BME280;51070;52.236;-0.892;2023-01-29T07:22:52;101827.19;;;4.48;96.18
62928;BME280;51070;52.236;-0.892;2023-01-29T07:25:17;101820.48;;;4.50;96.65
62928;BME280;51070;52.236;-0.892;2023-01-29T07:27:43;101818.20;;;4.54;96.66
62928;BME280;51070;52.236;-0.892;2023-01-29T07:30:09;101820.19;;;4.53;96.48
62928;BME280;51070;52.236;-0.892;2023-01-29T07:32:34;101818.81;;;4.53;96.40
62928;BME280;51070;52.236;-0.892;2023-01-29T07:35:00;101826.04;;;4.53;96.57
62928;BME280;51070;52.236;-0.892;2023-01-29T07:37:25;101824.38;;;4.54;96.66
62928;BME280;51070;52.236;-0.892;2023-01-29T07:39:50;101822.41;;;4.55;96.71
62928;BME280;51070;52.236;-0.892;2023-01-29T07:42:16;101822.28;;;4.56;96.69
62928;BME280;51070;52.236;-0.892;2023-01-29T07:44:41;101822.26;;;4.55;96.64
62928;BME280;51070;52.236;-0.892;2023-01-29T07:47:06;101821.41;;;4.55;96.44
62928;BME280;51070;52.236;-0.892;2023-01-29T07:49:32;101820.24;;;4.56;96.68
62928;BME280;51070;52.236;-0.892;2023-01-29T07:51:57;101817.43;;;4.59;97.04
62928;BME280;51070;52.236;-0.892;2023-01-29T07:54:23;101818.55;;;4.66;97.22
62928;BME280;51070;52.236;-0.892;2023-01-29T07:56:48;101816.10;;;4.70;96.87
62928;BME280;51070;52.236;-0.892;2023-01-29T07:59:14;101810.91;;;4.71;96.83
62928;BME280;51070;52.236;-0.892;2023-01-29T08:01:39;101815.40;;;4.72;96.74
62928;BME280;51070;52.236;-0.892;2023-01-29T08:04:04;101805.41;;;4.71;96.75
62928;BME280;51070;52.236;-0.892;2023-01-29T08:06:30;101801.43;;;4.71;96.94
62928;BME280;51070;52.236;-0.892;2023-01-29T08:08:55;101806.66;;;4.72;96.76
62928;BME280;51070;52.236;-0.892;2023-01-29T08:11:21;101808.89;;;4.74;97.15
62928;BME280;51070;52.236;-0.892;2023-01-29T08:13:47;101808.77;;;4.77;96.83
62928;BME280;51070;52.236;-0.892;2023-01-29T08:16:12;101802.61;;;4.77;97.01
62928;BME280;51070;52.236;-0.892;2023-01-29T08:18:38;101799.48;;;4.79;96.98
62928;BME280;51070;52.236;-0.892;2023-01-29T08:21:08;101799.83;;;4.84;97.32
62928;BME280;51070;52.236;-0.892;2023-01-29T08:23:33;101802.93;;;4.84;97.36
62928;BME280;51070;52.236;-0.892;2023-01-29T08:26:01;101799.45;;;4.83;97.56
62928;BME280;51070;52.236;-0.892;2023-01-29T08:28:27;101799.11;;;4.81;97.32
62928;BME280;51070;52.236;-0.892;2023-01-29T08:30:52;101793.33;;;4.79;97.56
62928;BME280;51070;52.236;-0.892;2023-01-29T08:33:17;101788.09;;;4.80;97.75
62928;BME280;51070;52.236;-0.892;2023-01-29T08:35:47;101786.15;;;4.79;97.74
62928;BME280;51070;52.236;-0.892;2023-01-29T08:38:13;101791.80;;;4.79;97.49
62928;BME280;51070;52.236;-0.892;2023-01-29T08:40:38;101794.23;;;4.82;97.68
62928;BME280;51070;52.236;-0.892;2023-01-29T08:43:06;101797.66;;;4.87;97.85
62928;BME280;51070;52.236;-0.892;2023-01-29T08:45:33;101796.23;;;4.91;97.58
62928;BME280;51070;52.236;-0.892;2023-01-29T08:47:59;101796.18;;;4.93;97.61
62928;BME280;51070;52.236;-0.892;2023-01-29T08:50:25;101801.09;;;4.96;97.39
62928;BME280;51070;52.236;-0.892;2023-01-29T08:52:51;101801.38;;;5.03;97.51
62928;BME280;51070;52.236;-0.892;2023-01-29T08:55:21;101798.98;;;5.13;97.63
62928;BME280;51070;52.236;-0.892;2023-01-29T08:57:46;101794.58;;;5.20;97.43
62928;BME280;51070;52.236;-0.892;2023-01-29T09:00:12;101799.36;;;5.27;97.41
62928;BME280;51070;52.236;-0.892;2023-01-29T09:02:39;101806.70;;;5.32;97.32
62928;BME280;51070;52.236;-0.892;2023-01-29T09:05:05;101800.44;;;5.33;97.16
62928;BME280;51070;52.236;-0.892;2023-01-29T09:07:31;101798.92;;;5.36;97.44
62928;BME280;51070;52.236;-0.892;2023-01-29T09:09:57;101800.80;;;5.38;97.28
62928;BME280;51070;52.236;-0.892;2023-01-29T09:12:22;101802.97;;;5.42;97.57
62928;BME280;51070;52.236;-0.892;2023-01-29T09:14:48;101801.02;;;5.48;97.44
62928;BME280;51070;52.236;-0.892;2023-01-29T09:17:13;101799.43;;;5.56;97.39
62928;BME280;51070;52.236;-0.892;2023-01-29T09:19:39;101795.20;;;5.59;97.20
62928;BME280;51070;52.236;-0.892;2023-01-29T09:22:05;101789.70;;;5.61;97.41
62928;BME280;51070;52.236;-0.892;2023-01-29T09:24:30;101785.02;;;5.65;97.60
62928;BME280;51070;52.236;-0.892;2023-01-29T09:26:57;101777.27;;;5.70;97.34
62928;BME280;51070;52.236;-0.892;2023-01-29T09:29:22;101779.15;;;5.69;97.14
62928;BME280;51070;52.236;-0.892;2023-01-29T09:31:48;101781.89;;;5.74;97.22
62928;BME280;51070;52.236;-0.892;2023-01-29T09:34:13;101781.87;;;5.79;97.31
62928;BME280;51070;52.236;-0.892;2023-01-29T09:36:38;101783.70;;;5.81;97.27
62928;BME280;51070;52.236;-0.892;2023-01-29T09:39:04;101778.89;;;5.85;97.68
62928;BME280;51070;52.236;-0.892;2023-01-29T09:42:00;101786.60;;;5.93;97.99
62928;BME280;51070;52.236;-0.892;2023-01-29T09:47:03;101778.32;;;5.95;97.61
62928;BME280;51070;52.236;-0.892;2023-01-29T09:49:34;101778.16;;;5.95;97.79
62928;BME280;51070;52.236;-0.892;2023-01-29T09:54:43;101773.55;;;6.06;97.92
62928;BME280;51070;52.236;-0.892;2023-01-29T09:57:16;101774.23;;;6.10;97.83
62928;BME280;51070;52.236;-0.892;2023-01-29T09:59:43;101772.66;;;6.18;98.16
62928;BME280;51070;52.236;-0.892;2023-01-29T10:02:26;101772.58;;;6.24;97.87
62928;BME280;51070;52.236;-0.892;2023-01-29T10:05:21;101777.95;;;6.30;97.96
62928;BME280;51070;52.236;-0.892;2023-01-29T10:08:06;101776.27;;;6.36;97.81
62928;BME280;51070;52.236;-0.892;2023-01-29T10:10:50;101773.02;;;6.39;97.62
62928;BME280;51070;52.236;-0.892;2023-01-29T10:13:42;101766.66;;;6.44;97.59
62928;BME280;51070;52.236;-0.892;2023-01-29T10:27:02;101759.01;;;6.74;97.37
62928;BME280;51070;52.236;-0.892;2023-01-29T10:29:28;101756.86;;;6.81;97.28
62928;BME280;51070;52.236;-0.892;2023-01-29T10:31:57;101750.84;;;6.91;97.39
62928;BME280;51070;52.236;-0.892;2023-01-29T10:34:40;101744.59;;;7.07;97.50
62928;BME280;51070;52.236;-0.892;2023-01-29T10:37:12;101739.64;;;7.24;96.98
62928;BME280;51070;52.236;-0.892;2023-01-29T10:39:39;101727.60;;;7.35;96.39
62928;BME280;51070;52.236;-0.892;2023-01-29T10:50:54;101704.59;;;7.90;95.24
62928;BME280;51070;52.236;-0.892;2023-01-29T10:58:54;101687.41;;;8.24;94.09
62928;BME280;51070;52.236;-0.892;2023-01-29T11:01:22;101684.53;;;8.24;93.99
62928;BME280;51070;52.236;-0.892;2023-01-29T11:04:00;101683.59;;;8.26;93.88
62928;BME280;51070;52.236;-0.892;2023-01-29T11:06:32;101681.14;;;8.34;93.77
62928;BME280;51070;52.236;-0.892;2023-01-29T11:14:55;101676.14;;;8.46;92.87
62928;BME280;51070;52.236;-0.892;2023-01-29T11:17:24;101670.72;;;8.45;92.97
62928;BME280;51070;52.236;-0.892;2023-01-29T11:19:52;101665.73;;;8.48;93.12
62928;BME280;51070;52.236;-0.892;2023-01-29T11:22:28;101657.41;;;8.56;92.99
62928;BME280;51070;52.236;-0.892;2023-01-29T11:25:15;101654.74;;;8.64;92.09
62928;BME280;51070;52.236;-0.892;2023-01-29T11:27:47;101652.13;;;8.76;91.45
62928;BME280;51070;52.236;-0.892;2023-01-29T11:30:19;101651.34;;;8.87;91.18
62928;BME280;51070;52.236;-0.892;2023-01-29T11:35:34;101634.00;;;9.08;89.72
62928;BME280;51070;52.236;-0.892;2023-01-29T11:38:23;101630.96;;;9.19;89.57
62928;BME280;51070;52.236;-0.892;2023-01-29T11:40:49;101627.50;;;9.35;89.44
62928;BME280;51070;52.236;-0.892;2023-01-29T11:45:56;101621.54;;;9.57;88.13
62928;BME280;51070;52.236;-0.892;2023-01-29T11:48:31;101614.49;;;9.47;87.51
62928;BME280;51070;52.236;-0.892;2023-01-29T11:50:59;101618.54;;;9.39;87.36
62928;BME280;51070;52.236;-0.892;2023-01-29T11:53:44;101613.11;;;9.31;87.32
62928;BME280;51070;52.236;-0.892;2023-01-29T11:58:47;101592.35;;;9.22;88.21
62928;BME280;51070;52.236;-0.892;2023-01-29T12:01:17;101585.75;;;9.22;87.95
62928;BME280;51070;52.236;-0.892;2023-01-29T12:03:51;101589.52;;;9.31;87.84
62928;BME280;51070;52.236;-0.892;2023-01-29T12:06:31;101578.91;;;9.36;87.75
62928;BME280;51070;52.236;-0.892;2023-01-29T12:09:00;101576.21;;;9.38;87.52
62928;BME280;51070;52.236;-0.892;2023-01-29T12:11:27;101567.71;;;9.33;86.93
62928;BME280;51070;52.236;-0.892;2023-01-29T12:13:56;101561.88;;;9.34;86.30
62928;BME280;51070;52.236;-0.892;2023-01-29T12:16:39;101565.70;;;9.35;84.91
62928;BME280;51070;52.236;-0.892;2023-01-29T12:21:57;101552.09;;;9.31;84.79
62928;BME280;51070;52.236;-0.892;2023-01-29T12:24:52;101542.86;;;9.33;84.74
62928;BME280;51070;52.236;-0.892;2023-01-29T12:30:16;101533.69;;;9.39;84.11
62928;BME280;51070;52.236;-0.892;2023-01-29T12:35:46;101521.15;;;9.54;83.84
62928;BME280;51070;52.236;-0.892;2023-01-29T12:38:22;101521.56;;;9.55;83.41
62928;BME280;51070;52.236;-0.892;2023-01-29T12:41:33;101519.09;;;9.54;83.57
62928;BME280;51070;52.236;-0.892;2023-01-29T12:43:47;101507.70;;;9.51;83.18
62928;BME280;51070;52.236;-0.892;2023-01-29T12:46:37;101502.14;;;9.50;82.65
62928;BME280;51070;52.236;-0.892;2023-01-29T12:49:10;101491.59;;;9.53;82.77
62928;BME280;51070;52.236;-0.892;2023-01-29T12:51:44;101484.13;;;9.63;82.41
62928;BME280;51070;52.236;-0.892;2023-01-29T12:54:18;101486.83;;;9.69;82.23
62928;BME280;51070;52.236;-0.892;2023-01-29T12:56:51;101479.49;;;9.75;81.80
62928;BME280;51070;52.236;-0.892;2023-01-29T13:01:52;101465.73;;;9.94;81.54
62928;BME280;51070;52.236;-0.892;2023-01-29T13:04:39;101468.93;;;10.03;81.55
62928;BME280;51070;52.236;-0.892;2023-01-29T13:07:27;101476.07;;;10.19;80.52
62928;BME280;51070;52.236;-0.892;2023-01-29T13:10:02;101473.04;;;10.24;79.15
62928;BME280;51070;52.236;-0.892;2023-01-29T13:12:30;101475.63;;;10.17;78.61
62928;BME280;51070;52.236;-0.892;2023-01-29T13:15:02;101470.23;;;10.13;78.66
62928;BME280;51070;52.236;-0.892;2023-01-29T13:17:34;101473.04;;;10.02;78.44
62928;BME280;51070;52.236;-0.892;2023-01-29T13:22:38;101470.65;;;10.00;78.71
62928;BME280;51070;52.236;-0.892;2023-01-29T13:25:10;101464.84;;;9.97;78.72
62928;BME280;51070;52.236;-0.892;2023-01-29T13:27:36;101461.60;;;9.98;78.97
62928;BME280;51070;52.236;-0.892;2023-01-29T13:30:02;101454.46;;;9.96;78.46
62928;BME280;51070;52.236;-0.892;2023-01-29T13:32:33;101460.02;;;9.94;78.68
62928;BME280;51070;52.236;-0.892;2023-01-29T13:35:11;101460.88;;;9.93;78.31
62928;BME280;51070;52.236;-0.892;2023-01-29T13:37:47;101452.77;;;9.94;78.93
62928;BME280;51070;52.236;-0.892;2023-01-29T13:40:28;101448.70;;;9.88;78.93
62928;BME280;51070;52.236;-0.892;2023-01-29T13:42:55;101444.23;;;9.77;79.18
62928;BME280;51070;52.236;-0.892;2023-01-29T13:47:47;101437.86;;;9.56;78.90
62928;BME280;51070;52.236;-0.892;2023-01-29T13:50:27;101442.04;;;9.46;78.63
62928;BME280;51070;52.236;-0.892;2023-01-29T13:52:56;101433.21;;;9.34;78.85
62928;BME280;51070;52.236;-0.892;2023-01-29T13:55:30;101426.66;;;9.27;79.61
62928;BME280;51070;52.236;-0.892;2023-01-29T13:58:01;101421.91;;;9.25;80.01
62928;BME280;51070;52.236;-0.892;2023-01-29T14:08:05;101418.71;;;9.03;79.94
62928;BME280;51070;52.236;-0.892;2023-01-29T14:13:46;101410.64;;;8.96;79.87
62928;BME280;51070;52.236;-0.892;2023-01-29T14:23:43;101404.41;;;9.03;80.33
62928;BME280;51070;52.236;-0.892;2023-01-29T14:29:00;101404.83;;;8.97;81.12
62928;BME280;51070;52.236;-0.892;2023-01-29T14:31:54;101401.33;;;8.96;81.23
62928;BME280;51070;52.236;-0.892;2023-01-29T14:34:41;101402.31;;;8.99;81.76
62928;BME280;51070;52.236;-0.892;2023-01-29T14:42:28;101376.52;;;9.17;82.36
62928;BME280;51070;52.236;-0.892;2023-01-29T14:44:56;101376.77;;;9.23;82.33
62928;BME280;51070;52.236;-0.892;2023-01-29T14:52:22;101370.23;;;9.34;82.29
62928;BME280;51070;52.236;-0.892;2023-01-29T14:54:51;101369.34;;;9.33;82.42
62928;BME280;51070;52.236;-0.892;2023-01-29T14:57:17;101363.09;;;9.32;82.67
62928;BME280;51070;52.236;-0.892;2023-01-29T14:59:56;101356.42;;;9.37;82.88
62928;BME280;51070;52.236;-0.892;2023-01-29T15:02:28;101350.19;;;9.40;82.86
62928;BME280;51070;52.236;-0.892;2023-01-29T15:05:04;101343.67;;;9.41;83.11
62928;BME280;51070;52.236;-0.892;2023-01-29T15:07:43;101340.41;;;9.42;83.20
62928;BME280;51070;52.236;-0.892;2023-01-29T15:10:20;101339.23;;;9.42;83.19
62928;BME280;51070;52.236;-0.892;2023-01-29T15:20:48;101320.25;;;9.31;83.04
62928;BME280;51070;52.236;-0.892;2023-01-29T15:23:31;101322.55;;;9.28;82.98